Time;durP1;ratioP1;P1;durP2;ratioP2;P2;SDS_P1;SDS_P2;PMS_P1;PMS_P2;Temp;Humidity;BMP_temperature;BMP_pressure;BME280_temperature;BME280_humidity;BME280_pressure;Samples;Min_cycle;Max_cycle;Signal;HPM_P1;HPM_P2
2021/10/15 00:00:23;;;;;;;21.80;19.90;;;;;;;10.52;79.46;100589.46;116485;1195;23655;-79
2021/10/15 00:03:03;;;;;;;22.10;20.10;;;;;;;10.51;79.38;100585.70;116491;1195;23453;-79
2021/10/15 00:05:33;;;;;;;22.30;20.20;;;;;;;10.50;79.46;100586.48;116755;1192;22678;-78
2021/10/15 00:08:03;;;;;;;21.70;19.70;;;;;;;10.53;79.52;100587.96;116927;1189;22968;-79
2021/10/15 00:10:32;;;;;;;23.60;21.40;;;;;;;10.54;79.52;100586.05;117081;1185;21919;-79
2021/10/15 00:13:03;;;;;;;21.30;19.40;;;;;;;10.54;79.40;100586.09;116942;1186;22455;-79
2021/10/15 00:15:35;;;;;;;21.50;19.60;;;;;;;10.52;79.43;100584.77;116913;1189;21904;-80
2021/10/15 00:18:07;;;;;;;22.30;20.10;;;;;;;10.51;79.58;100584.80;116989;1189;23410;-79
2021/10/15 00:20:36;;;;;;;21.70;19.40;;;;;;;10.51;79.59;100585.02;116851;1191;21891;-80
2021/10/15 00:23:07;;;;;;;22.30;20.30;;;;;;;10.51;79.60;100579.42;116790;1187;23464;-80
2021/10/15 00:25:39;;;;;;;21.40;19.40;;;;;;;10.52;79.60;100574.90;116839;1191;21891;-80
2021/10/15 00:28:08;;;;;;;22.10;20.20;;;;;;;10.53;79.70;100565.55;117076;1191;23634;-79
2021/10/15 00:30:38;;;;;;;19.70;17.90;;;;;;;10.55;79.62;100564.86;116934;1190;24208;-80
2021/10/15 00:33:08;;;;;;;20.30;18.30;;;;;;;10.56;79.56;100562.85;117101;1187;22903;-79
2021/10/15 00:35:40;;;;;;;21.60;19.50;;;;;;;10.54;79.46;100562.32;116821;1187;21908;-79
2021/10/15 00:38:09;;;;;;;21.00;19.00;;;;;;;10.56;79.67;100559.52;116830;1188;21878;-80
2021/10/15 00:40:38;;;;;;;21.00;19.20;;;;;;;10.59;79.87;100554.70;116987;1186;21880;-80
2021/10/15 00:43:07;;;;;;;22.50;20.50;;;;;;;10.62;79.90;100557.74;116972;1187;21944;-79
2021/10/15 00:45:37;;;;;;;20.50;18.60;;;;;;;10.66;79.87;100553.68;116887;1191;23535;-80
2021/10/15 00:48:06;;;;;;;21.20;19.20;;;;;;;10.69;79.78;100552.63;117034;1191;21899;-77
2021/10/15 00:50:37;;;;;;;20.60;18.70;;;;;;;10.70;79.57;100553.19;116942;1191;21877;-79
2021/10/15 00:53:08;;;;;;;21.00;19.10;;;;;;;10.72;79.48;100554.58;116920;1191;23450;-79
2021/10/15 00:55:38;;;;;;;20.80;18.80;;;;;;;10.74;79.54;100550.91;116924;1187;21898;-79
2021/10/15 00:58:07;;;;;;;20.00;18.20;;;;;;;10.74;79.54;100550.68;116834;1187;21882;-79
2021/10/15 01:00:36;;;;;;;19.60;17.60;;;;;;;10.75;79.51;100553.23;116847;1191;22959;-79
2021/10/15 01:03:07;;;;;;;21.00;19.20;;;;;;;10.74;79.39;100546.16;116789;1188;23003;-79
2021/10/15 01:05:36;;;;;;;20.90;18.90;;;;;;;10.73;79.47;100548.64;116856;1187;23410;-80
2021/10/15 01:08:06;;;;;;;20.20;18.40;;;;;;;10.73;79.41;100546.86;116833;1191;22919;-78
2021/10/15 01:10:35;;;;;;;22.10;20.10;;;;;;;10.73;79.46;100549.02;116810;1189;21920;-80
2021/10/15 01:13:05;;;;;;;20.90;19.10;;;;;;;10.73;79.49;100547.41;117251;1187;21910;-79
2021/10/15 01:15:34;;;;;;;22.50;20.50;;;;;;;10.74;79.51;100550.29;117052;1189;21948;-79
2021/10/15 01:18:15;;;;;;;22.50;20.10;;;;;;;10.75;79.56;100548.61;116817;1191;22913;-79
2021/10/15 01:20:48;;;;;;;21.80;19.60;;;;;;;10.73;79.37;100548.84;116804;1189;23464;-79
2021/10/15 01:23:17;;;;;;;;;;;;;;;10.73;79.59;100548.45;116841;1191;23004;-79
2021/10/15 01:25:56;;;;;;;21.50;19.40;;;;;;;10.69;79.82;100541.40;116793;1187;21891;-79
2021/10/15 01:28:27;;;;;;;22.30;20.30;;;;;;;10.65;79.70;100539.81;116805;1191;23465;-79
2021/10/15 01:30:57;;;;;;;21.40;19.40;;;;;;;10.64;79.53;100539.73;116890;1191;21915;-79
2021/10/15 01:33:27;;;;;;;21.50;19.60;;;;;;;10.65;79.71;100540.74;116798;1190;21900;-79
2021/10/15 01:35:56;;;;;;;23.10;21.00;;;;;;;10.67;79.70;100541.77;116861;1191;21908;-79
2021/10/15 01:38:26;;;;;;;22.70;19.90;;;;;;;10.70;79.87;100540.18;116841;1191;22920;-79
2021/10/15 01:40:57;;;;;;;23.80;21.50;;;;;;;10.75;80.02;100540.48;116844;1191;22017;-78
2021/10/15 01:43:31;;;;;;;21.00;19.00;;;;;;;10.77;79.73;100538.86;116958;1187;21876;-79
2021/10/15 01:46:00;;;;;;;22.40;20.30;;;;;;;10.77;79.62;100538.01;117067;1189;21910;-78
2021/10/15 01:48:29;;;;;;;21.40;19.40;;;;;;;10.79;79.93;100536.89;116860;1189;21929;-78
2021/10/15 01:50:59;;;;;;;22.10;19.70;;;;;;;10.82;79.85;100537.61;116977;1189;23447;-78
2021/10/15 01:53:29;;;;;;;20.70;18.80;;;;;;;10.82;79.41;100532.86;116621;1190;22375;-79
2021/10/15 01:55:58;;;;;;;20.50;18.70;;;;;;;10.83;79.58;100532.67;116548;1192;22923;-78
2021/10/15 01:58:27;;;;;;;22.60;20.60;;;;;;;10.84;79.61;100532.83;116645;1190;22733;-78
2021/10/15 02:00:56;;;;;;;20.10;18.30;;;;;;;10.86;79.57;100528.96;116575;1190;23441;-78
2021/10/15 02:03:25;;;;;;;19.70;17.90;;;;;;;10.85;79.56;100527.44;116775;1192;23691;-78
2021/10/15 02:05:57;;;;;;;;;;;;;;;10.86;79.71;100525.86;116820;1192;23449;-78
2021/10/15 02:08:26;;;;;;;20.20;18.10;;;;;;;10.81;79.96;100522.21;116777;1191;21870;-78
2021/10/15 02:10:56;;;;;;;20.70;18.90;;;;;;;10.82;79.78;100524.96;116800;1189;24283;-78
2021/10/15 02:13:25;;;;;;;19.00;17.30;;;;;;;10.86;79.76;100517.20;116864;1189;21935;-78
2021/10/15 02:15:54;;;;;;;21.40;19.40;;;;;;;10.88;79.64;100517.83;116769;1188;24145;-78
2021/10/15 02:18:23;;;;;;;20.60;18.70;;;;;;;10.91;79.58;100512.91;116777;1191;22041;-78
2021/10/15 02:20:52;;;;;;;20.30;18.50;;;;;;;10.92;79.44;100513.04;116830;1187;21915;-79
2021/10/15 02:23:25;;;;;;;;;;;;;;;10.91;79.44;100508.30;116818;1191;21886;-79
2021/10/15 02:25:54;;;;;;;20.30;18.50;;;;;;;10.83;79.34;100509.83;116809;1188;23557;-79
2021/10/15 02:28:23;;;;;;;20.20;18.10;;;;;;;10.85;79.74;100508.31;116650;1188;21900;-79
2021/10/15 02:30:52;;;;;;;20.90;19.00;;;;;;;10.91;79.63;100510.81;116829;1191;23431;-78
2021/10/15 02:33:21;;;;;;;18.50;16.70;;;;;;;10.94;79.45;100507.55;116800;1189;22958;-79
2021/10/15 02:35:50;;;;;;;20.30;18.30;;;;;;;10.95;79.35;100505.44;117028;1189;23446;-78
2021/10/15 02:38:20;;;;;;;18.90;17.30;;;;;;;10.98;79.42;100504.45;116917;1189;23577;-78
2021/10/15 02:40:49;;;;;;;20.30;18.50;;;;;;;10.99;79.27;100502.06;116909;1189;21899;-78
2021/10/15 02:43:18;;;;;;;20.30;18.50;;;;;;;10.98;79.08;100501.73;117014;1189;21998;-78
2021/10/15 02:45:47;;;;;;;21.10;19.20;;;;;;;10.97;79.06;100504.30;116903;1189;24190;-79
2021/10/15 02:48:16;;;;;;;18.40;16.90;;;;;;;10.99;79.13;100503.61;117080;1189;23441;-78
2021/10/15 02:50:48;;;;;;;17.90;16.50;;;;;;;11.02;79.05;100501.69;116918;1189;21885;-78
2021/10/15 02:53:18;;;;;;;18.90;17.00;;;;;;;11.01;79.05;100497.23;117114;1189;23543;-78
2021/10/15 02:55:47;;;;;;;19.80;17.70;;;;;;;11.01;78.90;100498.30;117067;1189;22932;-78
2021/10/15 02:58:16;;;;;;;16.90;15.30;;;;;;;11.00;78.84;100497.13;117098;1185;21882;-78
2021/10/15 03:00:46;;;;;;;19.10;17.50;;;;;;;10.99;78.81;100491.91;117041;1189;22367;-78
2021/10/15 03:03:15;;;;;;;18.40;16.70;;;;;;;11.02;78.86;100491.65;116777;1184;21893;-79
2021/10/15 03:05:44;;;;;;;17.60;16.10;;;;;;;11.00;78.70;100487.56;116799;1191;21877;-79
2021/10/15 03:08:13;;;;;;;18.40;16.60;;;;;;;10.98;78.61;100490.97;116855;1191;21985;-79
2021/10/15 03:10:43;;;;;;;19.10;17.30;;;;;;;10.99;78.80;100490.23;116482;1193;23559;-79
2021/10/15 03:13:12;;;;;;;19.10;17.30;;;;;;;10.99;78.69;100481.61;116230;1197;23733;-78
2021/10/15 03:15:42;;;;;;;16.50;15.00;;;;;;;10.98;78.71;100474.41;116308;1196;21914;-79
2021/10/15 03:18:12;;;;;;;17.80;16.10;;;;;;;10.95;78.69;100467.87;116250;1198;23514;-79
2021/10/15 03:20:43;;;;;;;20.90;18.90;;;;;;;10.97;78.82;100465.25;116024;1196;21903;-80
2021/10/15 03:23:13;;;;;;;21.40;19.60;;;;;;;10.99;78.65;100475.04;116295;1196;21914;-79
2021/10/15 03:25:42;;;;;;;22.90;20.80;;;;;;;10.97;78.55;100479.27;116412;1193;21919;-79
2021/10/15 03:28:11;;;;;;;22.60;20.50;;;;;;;10.95;78.49;100489.05;116298;1194;24148;-79
2021/10/15 03:30:42;;;;;;;22.70;20.50;;;;;;;10.98;78.72;100493.17;116255;1194;23454;-79
2021/10/15 03:33:11;;;;;;;19.60;17.70;;;;;;;10.99;78.68;100493.86;116349;1196;23672;-78
2021/10/15 03:35:40;;;;;;;19.30;17.50;;;;;;;10.98;78.51;100489.56;116298;1196;21888;-78
2021/10/15 03:38:09;;;;;;;18.40;16.70;;;;;;;10.97;78.41;100484.78;116354;1190;23041;-75
2021/10/15 03:40:38;;;;;;;18.10;16.40;;;;;;;10.96;78.41;100480.95;116742;1191;21911;-74
2021/10/15 03:43:10;;;;;;;18.00;16.20;;;;;;;10.95;78.27;100477.79;116735;1191;23366;-74
2021/10/15 03:45:39;;;;;;;18.90;16.60;;;;;;;10.93;78.50;100469.85;116755;1187;24124;-74
2021/10/15 03:48:08;;;;;;;19.80;18.00;;;;;;;10.94;78.49;100479.60;116738;1189;22511;-75
2021/10/15 03:50:37;;;;;;;21.20;19.20;;;;;;;10.94;78.32;100486.99;116879;1177;21875;-74
2021/10/15 03:53:07;;;;;;;18.30;16.50;;;;;;;10.96;78.44;100487.50;117024;1185;21959;-74
2021/10/15 03:55:37;;;;;;;17.60;16.00;;;;;;;10.98;78.36;100489.61;116823;1189;21878;-74
2021/10/15 03:58:06;;;;;;;18.10;16.50;;;;;;;10.99;78.28;100488.81;116933;1189;21928;-74
2021/10/15 04:00:35;;;;;;;18.00;16.20;;;;;;;11.01;78.37;100488.08;117014;1187;21918;-75
2021/10/15 04:03:07;;;;;;;17.60;15.90;;;;;;;11.02;78.25;100487.79;116951;1189;23439;-75
2021/10/15 04:05:36;;;;;;;20.10;17.90;;;;;;;11.01;78.15;100488.02;116945;1189;21868;-74
2021/10/15 04:08:05;;;;;;;17.00;15.30;;;;;;;11.03;78.19;100486.06;116919;1189;21892;-74
2021/10/15 04:10:34;;;;;;;19.10;17.20;;;;;;;11.04;77.98;100486.45;117009;1181;21881;-74
2021/10/15 04:13:03;;;;;;;16.10;14.70;;;;;;;11.06;77.98;100489.30;116867;1189;21990;-74
2021/10/15 04:15:32;;;;;;;17.40;15.80;;;;;;;11.06;77.83;100486.92;116822;1189;21899;-73
2021/10/15 04:18:02;;;;;;;18.40;16.60;;;;;;;11.06;77.72;100483.05;116900;1186;21890;-74
2021/10/15 04:20:35;;;;;;;17.90;16.30;;;;;;;11.06;77.66;100477.73;116609;1192;22670;-74
2021/10/15 04:23:05;;;;;;;17.40;15.80;;;;;;;11.06;77.62;100473.89;116721;1192;23599;-74
2021/10/15 04:25:35;;;;;;;17.80;16.20;;;;;;;11.05;77.63;100473.70;116740;1192;21919;-75
2021/10/15 04:28:09;;;;;;;20.20;17.40;;;;;;;11.03;77.64;100469.61;116583;1192;21891;-74
2021/10/15 04:30:40;;;;;;;18.30;16.40;;;;;;;11.04;77.68;100462.80;116480;1194;24387;-74
2021/10/15 04:33:09;;;;;;;17.80;16.10;;;;;;;11.04;77.57;100459.89;116491;1194;22301;-74
2021/10/15 04:35:39;;;;;;;17.10;15.50;;;;;;;11.03;77.57;100456.81;116467;1194;21898;-74
2021/10/15 04:38:13;;;;;;;17.50;15.90;;;;;;;11.00;77.49;100452.00;116454;1194;22913;-74
2021/10/15 04:40:43;;;;;;;19.50;17.60;;;;;;;10.98;77.64;100447.32;116459;1194;22914;-75
2021/10/15 04:43:12;;;;;;;19.30;17.50;;;;;;;11.00;77.64;100446.41;116503;1193;23559;-74
2021/10/15 04:45:44;;;;;;;;;;;;;;;11.04;77.75;100443.50;116648;1191;21873;-74
2021/10/15 04:48:14;;;;;;;22.40;20.00;;;;;;;10.98;77.70;100441.63;116613;1191;23630;-74
2021/10/15 04:50:43;;;;;;;23.20;20.90;;;;;;;10.96;77.54;100439.55;116765;1191;21920;-75
2021/10/15 04:53:15;;;;;;;22.60;20.20;;;;;;;10.99;77.61;100440.70;116756;1190;21922;-74
2021/10/15 04:55:46;;;;;;;25.70;23.20;;;;;;;10.98;77.37;100439.21;116755;1191;21889;-75
2021/10/15 04:58:16;;;;;;;23.60;21.10;;;;;;;10.96;77.43;100433.48;116640;1191;21886;-75
2021/10/15 05:00:46;;;;;;;23.50;21.20;;;;;;;10.96;77.36;100428.71;116637;1193;21883;-75
2021/10/15 05:03:19;;;;;;;24.00;21.50;;;;;;;10.95;77.42;100426.52;116593;1193;24255;-75
2021/10/15 05:05:48;;;;;;;23.50;21.30;;;;;;;10.96;77.46;100424.30;116645;1191;21882;-75
2021/10/15 05:08:20;;;;;;;21.80;19.70;;;;;;;10.97;77.47;100420.95;116760;1191;21891;-75
2021/10/15 05:10:50;;;;;;;22.60;20.40;;;;;;;10.99;77.26;100424.08;116859;1191;24126;-75
2021/10/15 05:13:20;;;;;;;21.00;18.90;;;;;;;10.99;77.26;100422.89;116784;1191;23437;-75
2021/10/15 05:15:50;;;;;;;21.60;19.40;;;;;;;11.00;77.31;100425.30;116816;1188;22130;-74
2021/10/15 05:18:19;;;;;;;20.70;18.70;;;;;;;11.01;77.26;100427.05;116457;1193;21895;-74
2021/10/15 05:20:49;;;;;;;19.80;17.90;;;;;;;11.05;77.38;100425.27;116579;1193;21870;-74
2021/10/15 05:23:18;;;;;;;19.70;17.70;;;;;;;11.08;77.33;100424.33;116498;1193;23057;-75
2021/10/15 05:25:48;;;;;;;19.30;16.60;;;;;;;11.10;77.10;100423.66;116483;1193;24258;-75
2021/10/15 05:28:21;;;;;;;23.30;19.10;;;;;;;11.08;76.95;100422.58;116450;1195;23475;-74
2021/10/15 05:30:51;;;;;;;17.20;15.60;;;;;;;11.10;77.01;100418.11;116204;1196;22045;-74
2021/10/15 05:33:20;;;;;;;21.30;19.20;;;;;;;11.13;77.00;100417.64;116207;1198;21905;-75
2021/10/15 05:35:50;;;;;;;16.90;15.20;;;;;;;11.16;76.93;100421.33;116213;1196;23639;-73
2021/10/15 05:38:19;;;;;;;17.80;14.80;;;;;;;11.17;76.67;100419.84;116247;1195;21928;-71
2021/10/15 05:40:52;;;;;;;15.80;14.10;;;;;;;11.17;76.76;100417.69;116342;1195;23407;-72
2021/10/15 05:43:21;;;;;;;16.80;14.00;;;;;;;11.19;76.60;100417.89;116322;1195;22352;-72
2021/10/15 05:45:50;;;;;;;16.40;14.90;;;;;;;11.19;76.42;100416.95;116397;1192;21880;-72
2021/10/15 05:48:19;;;;;;;17.40;15.70;;;;;;;11.16;76.15;100413.60;116387;1193;22948;-72
2021/10/15 05:50:49;;;;;;;16.30;14.70;;;;;;;11.13;76.05;100415.52;116396;1193;24272;-72
2021/10/15 05:53:20;;;;;;;28.60;25.70;;;;;;;11.13;76.25;100417.08;116229;1193;23549;-72
2021/10/15 06:01:12;;;;;;;20.90;18.70;;;;;;;11.17;76.20;100419.87;116254;1196;21890;-72
2021/10/15 06:03:45;;;;;;;21.00;18.80;;;;;;;11.19;76.09;100418.77;116285;1196;22032;-73
2021/10/15 06:14:19;;;;;;;22.50;20.10;;;;;;;11.20;75.85;100418.11;116366;1194;21890;-73
2021/10/15 06:16:53;;;;;;;24.10;21.20;;;;;;;11.23;75.94;100418.56;116465;1193;21904;-73
2021/10/15 06:19:25;;;;;;;20.30;18.20;;;;;;;11.28;75.95;100415.40;116483;1184;21934;-73
2021/10/15 06:21:54;;;;;;;;;;;;;;;11.31;75.66;100413.67;116518;1193;21930;-73
2021/10/15 06:24:23;;;;;;;18.10;16.40;;;;;;;11.27;75.59;100413.77;116526;1193;21917;-73
2021/10/15 06:26:53;;;;;;;19.10;17.40;;;;;;;11.28;75.52;100408.17;116597;1190;21927;-73
2021/10/15 06:29:22;;;;;;;20.00;18.10;;;;;;;11.35;75.62;100409.63;116556;1190;21909;-73
2021/10/15 06:31:52;;;;;;;18.90;17.10;;;;;;;11.40;75.57;100407.92;116548;1191;23477;-73
2021/10/15 06:34:21;;;;;;;19.70;17.90;;;;;;;11.44;75.23;100407.33;116783;1191;23461;-73
2021/10/15 06:36:51;;;;;;;24.80;22.50;;;;;;;11.46;75.15;100405.66;116811;1191;21920;-73
2021/10/15 06:39:21;;;;;;;22.60;19.50;;;;;;;11.49;74.98;100407.79;116757;1191;21907;-73
2021/10/15 06:41:50;;;;;;;20.50;18.50;;;;;;;11.51;74.86;100409.98;116813;1190;23446;-73
2021/10/15 06:44:20;;;;;;;18.80;17.00;;;;;;;11.54;74.89;100409.31;116828;1191;21922;-73
2021/10/15 06:46:49;;;;;;;19.50;17.60;;;;;;;11.57;74.79;100409.02;116856;1191;22909;-72
2021/10/15 06:49:19;;;;;;;18.60;16.70;;;;;;;11.63;74.93;100403.46;116819;1191;22717;-72
2021/10/15 06:51:49;;;;;;;19.30;16.70;;;;;;;11.66;74.58;100403.05;116918;1184;21893;-74
2021/10/15 06:54:18;;;;;;;21.30;19.10;;;;;;;11.70;74.61;100399.78;116863;1189;21982;-75
2021/10/15 06:56:57;;;;;;;17.80;16.00;;;;;;;11.74;74.45;100397.48;116905;1189;21900;-73
2021/10/15 06:59:26;;;;;;;17.80;16.30;;;;;;;11.80;74.41;100405.05;116914;1189;22907;-73
2021/10/15 07:01:55;;;;;;;18.40;16.70;;;;;;;11.86;74.21;100406.17;116893;1189;21888;-73
2021/10/15 07:04:25;;;;;;;18.90;17.00;;;;;;;11.89;73.99;100404.59;116851;1188;21883;-73
2021/10/15 07:06:54;;;;;;;18.50;16.70;;;;;;;11.93;74.00;100405.02;116880;1191;22751;-73
2021/10/15 07:09:23;;;;;;;21.40;19.20;;;;;;;11.97;73.78;100408.02;116755;1191;21917;-74
2021/10/15 07:11:53;;;;;;;19.00;17.10;;;;;;;12.00;73.57;100403.76;116764;1191;22772;-73
2021/10/15 07:14:27;;;;;;;53.80;46.00;;;;;;;12.04;73.54;100400.89;116766;1191;24145;-74
2021/10/15 07:16:56;;;;;;;23.70;20.40;;;;;;;12.06;73.30;100400.19;116758;1191;22853;-73
2021/10/15 07:19:25;;;;;;;24.50;18.10;;;;;;;12.09;73.45;100400.54;116778;1191;21936;-73
2021/10/15 07:21:55;;;;;;;22.30;17.70;;;;;;;12.12;73.08;100399.66;116783;1190;21992;-73
2021/10/15 07:24:25;;;;;;;18.70;16.50;;;;;;;12.10;72.73;100398.31;116852;1187;23536;-73
2021/10/15 07:26:54;;;;;;;22.50;17.30;;;;;;;12.08;72.64;100394.45;117080;1186;21903;-73
2021/10/15 07:29:24;;;;;;;24.20;17.30;;;;;;;12.09;72.70;100396.59;117061;1188;22906;-73
2021/10/15 07:31:53;;;;;;;20.60;16.60;;;;;;;12.14;72.70;100395.52;116846;1188;23604;-73
2021/10/15 07:34:22;;;;;;;20.90;18.60;;;;;;;12.18;72.72;100392.88;117058;1189;23524;-73
2021/10/15 07:36:52;;;;;;;22.00;17.20;;;;;;;12.25;72.80;100392.97;117029;1189;22750;-73
2021/10/15 07:39:25;;;;;;;39.60;18.60;;;;;;;12.33;72.76;100394.15;117056;1188;21897;-73
2021/10/15 07:41:54;;;;;;;28.20;23.40;;;;;;;12.39;72.40;100394.33;117036;1189;21981;-75
2021/10/15 07:44:23;;;;;;;24.50;17.40;;;;;;;12.42;72.05;100391.53;116961;1187;21879;-74
2021/10/15 07:46:53;;;;;;;38.80;28.70;;;;;;;12.47;72.16;100392.23;116870;1188;21930;-74
2021/10/15 07:49:22;;;;;;;24.10;18.50;;;;;;;12.55;71.99;100394.67;117055;1188;21846;-73
2021/10/15 07:51:53;;;;;;;20.20;18.30;;;;;;;12.54;71.19;100391.52;116708;1188;21942;-74
2021/10/15 07:54:23;;;;;;;26.60;24.00;;;;;;;12.54;70.99;100391.73;116381;1195;21918;-74
2021/10/15 07:56:52;;;;;;;32.50;28.60;;;;;;;12.57;71.23;100387.89;116420;1195;23344;-73
2021/10/15 07:59:22;;;;;;;26.60;23.80;;;;;;;12.67;71.54;100390.14;116418;1195;22863;-74
2021/10/15 08:01:51;;;;;;;25.50;23.00;;;;;;;12.79;71.42;100387.73;116152;1198;21904;-74
2021/10/15 08:04:20;;;;;;;21.30;19.10;;;;;;;12.89;71.07;100388.34;116141;1196;23646;-74
2021/10/15 08:06:51;;;;;;;29.80;26.60;;;;;;;12.94;70.48;100387.20;116057;1198;21909;-74
2021/10/15 08:09:20;;;;;;;31.70;28.30;;;;;;;12.93;69.90;100380.98;116083;1195;23475;-74
2021/10/15 08:11:51;;;;;;;19.10;17.40;;;;;;;12.92;69.88;100376.40;115943;1195;23120;-75
2021/10/15 08:14:22;;;;;;;23.60;21.10;;;;;;;12.91;69.69;100376.58;116279;1196;21891;-73
2021/10/15 08:16:52;;;;;;;26.90;24.20;;;;;;;12.92;69.80;100371.47;116177;1193;21915;-73
2021/10/15 08:19:40;;;;;;;23.70;21.20;;;;;;;13.03;70.06;100371.12;116159;1193;22157;-73
2021/10/15 08:22:11;;;;;;;31.70;27.30;;;;;;;13.17;70.05;100369.79;116187;1197;21900;-77
2021/10/15 08:24:44;;;;;;;29.70;26.60;;;;;;;13.32;70.08;100374.92;116225;1196;21903;-74
2021/10/15 08:27:14;;;;;;;25.40;22.80;;;;;;;13.52;70.07;100368.02;116212;1196;21921;-73
2021/10/15 08:29:44;;;;;;;20.50;18.30;;;;;;;13.74;69.62;100366.05;116356;1193;23468;-73
2021/10/15 08:32:13;;;;;;;20.10;16.30;;;;;;;13.97;69.22;100362.73;116580;1192;22605;-73
2021/10/15 08:34:45;;;;;;;31.00;26.20;;;;;;;14.16;68.45;100360.20;116437;1194;22020;-73
2021/10/15 08:37:14;;;;;;;29.50;23.50;;;;;;;14.29;67.63;100357.43;116504;1191;23493;-74
2021/10/15 08:39:46;;;;;;;20.20;17.30;;;;;;;14.44;67.26;100359.23;116804;1191;22338;-73
2021/10/15 08:42:16;;;;;;;17.70;15.90;;;;;;;14.55;66.61;100356.52;116759;1188;21899;-73
2021/10/15 08:44:46;;;;;;;16.30;14.20;;;;;;;14.71;66.06;100352.82;116429;1193;21913;-73
2021/10/15 08:47:17;;;;;;;17.60;15.10;;;;;;;14.79;65.05;100350.79;116465;1193;21913;-73
2021/10/15 08:50:07;;;;;;;16.10;14.40;;;;;;;14.86;64.69;100349.60;116442;1193;23471;-73
2021/10/15 08:52:36;;;;;;;16.30;14.60;;;;;;;14.99;64.53;100349.34;116579;1190;21888;-74
2021/10/15 08:55:06;;;;;;;21.00;15.30;;;;;;;15.14;63.89;100355.23;116457;1191;23542;-74
2021/10/15 08:57:35;;;;;;;16.50;14.80;;;;;;;15.30;63.53;100352.31;116523;1193;22848;-74
2021/10/15 09:00:42;;;;;;;14.20;12.80;;;;;;;15.41;62.46;100354.94;116695;1189;21886;-74
2021/10/15 09:03:23;;;;;;;12.40;10.60;;;;;;;15.44;61.42;100354.54;116581;1191;23433;-74
2021/10/15 09:05:57;;;;;;;19.20;16.10;;;;;;;15.51;61.04;100348.14;116768;1191;21892;-74
2021/10/15 09:08:44;;;;;;;13.10;11.20;;;;;;;15.58;60.60;100345.81;116721;1190;21879;-74
2021/10/15 09:11:27;;;;;;;15.20;13.80;;;;;;;15.70;60.24;100341.08;116734;1191;21897;-74
2021/10/15 09:14:09;;;;;;;13.00;11.00;;;;;;;15.78;59.32;100338.07;116474;1194;21943;-74
2021/10/15 09:17:08;;;;;;;13.10;11.80;;;;;;;15.86;59.02;100331.13;116462;1195;21902;-74
2021/10/15 09:19:44;;;;;;;13.30;11.90;;;;;;;15.97;58.58;100329.00;116482;1194;21904;-74
2021/10/15 09:22:30;;;;;;;13.20;11.90;;;;;;;16.11;58.73;100325.20;116522;1193;21923;-74
2021/10/15 09:25:12;;;;;;;12.50;10.40;;;;;;;16.28;58.07;100327.45;116462;1190;22916;-74
2021/10/15 09:27:45;;;;;;;11.30;10.30;;;;;;;16.39;57.32;100329.91;116555;1189;22917;-74
2021/10/15 09:30:21;;;;;;;11.10;10.00;;;;;;;16.44;56.72;100324.20;116543;1193;23444;-74
2021/10/15 09:33:03;;;;;;;10.60;9.20;;;;;;;16.42;55.85;100321.13;116915;1189;23665;-73
2021/10/15 09:35:37;;;;;;;16.90;11.00;;;;;;;16.40;55.80;100319.66;116828;1189;24000;-74
2021/10/15 09:38:09;;;;;;;12.30;9.50;;;;;;;16.34;54.82;100319.91;117014;1189;21996;-73
2021/10/15 09:40:48;;;;;;;12.60;10.70;;;;;;;16.17;54.58;100316.18;117071;1187;24251;-73
2021/10/15 09:43:17;;;;;;;30.60;27.70;;;;;;;16.12;55.46;100311.92;117088;1189;21891;-73
2021/10/15 09:45:52;;;;;;;13.20;11.20;;;;;;;16.23;55.89;100308.67;116937;1185;22737;-73
2021/10/15 09:48:28;;;;;;;11.50;10.40;;;;;;;16.41;55.85;100304.05;116883;1187;23497;-73
2021/10/15 09:51:17;;;;;;;10.80;9.80;;;;;;;16.49;54.86;100303.72;116885;1177;21892;-73
2021/10/15 09:54:14;;;;;;;8.30;7.50;;;;;;;16.43;53.85;100305.87;117033;1189;21981;-74
2021/10/15 09:56:51;;;;;;;8.90;8.00;;;;;;;16.28;53.28;100308.71;116842;1189;21912;-73
2021/10/15 09:59:21;;;;;;;20.60;18.30;;;;;;;16.18;53.37;100303.10;116857;1189;21974;-73
2021/10/15 10:01:50;;;;;;;13.00;10.90;;;;;;;16.12;53.50;100302.43;116884;1189;22721;-73
2021/10/15 10:04:22;;;;;;;8.70;7.80;;;;;;;16.13;53.66;100302.31;116938;1184;22956;-74
2021/10/15 10:06:51;;;;;;;9.70;8.00;;;;;;;16.09;53.35;100297.23;116991;1185;24164;-73
2021/10/15 10:09:20;;;;;;;9.10;7.40;;;;;;;16.03;53.16;100299.95;116948;1180;21882;-74
2021/10/15 10:11:50;;;;;;;7.70;6.90;;;;;;;15.97;53.22;100299.77;116926;1188;23457;-74
2021/10/15 10:14:19;;;;;;;7.60;6.20;;;;;;;15.89;52.67;100294.12;116899;1186;22998;-73
2021/10/15 10:16:52;;;;;;;8.50;7.60;;;;;;;15.79;52.81;100292.63;116962;1188;22018;-74
2021/10/15 10:19:26;;;;;;;9.20;7.70;;;;;;;15.75;52.92;100296.84;116806;1190;23343;-73
2021/10/15 10:21:55;;;;;;;9.10;7.50;;;;;;;15.69;52.77;100293.23;116634;1186;21918;-74
2021/10/15 10:24:31;;;;;;;8.80;7.90;;;;;;;15.63;52.98;100285.49;116722;1191;22093;-74
2021/10/15 10:27:01;;;;;;;10.10;9.00;;;;;;;15.67;53.30;100280.39;116753;1188;21932;-73
2021/10/15 10:29:30;;;;;;;8.80;7.90;;;;;;;15.81;53.67;100278.17;116762;1191;23492;-73
2021/10/15 10:32:17;;;;;;;9.40;8.40;;;;;;;15.93;52.93;100277.64;116711;1192;22317;-75
2021/10/15 10:34:46;;;;;;;8.60;7.60;;;;;;;16.09;53.44;100272.39;116878;1191;24261;-75
2021/10/15 10:37:18;;;;;;;7.70;7.00;;;;;;;16.49;53.96;100273.61;116845;1188;23488;-73
2021/10/15 10:40:09;;;;;;;8.50;7.60;;;;;;;17.08;53.74;100274.34;116924;1187;21944;-73
2021/10/15 10:43:03;;;;;;;9.50;7.50;;;;;;;17.52;51.21;100267.14;116989;1188;21957;-73
2021/10/15 10:45:32;;;;;;;10.30;7.60;;;;;;;18.00;50.70;100261.67;117035;1189;22066;-73
2021/10/15 10:48:06;;;;;;;8.80;7.90;;;;;;;18.54;49.79;100260.30;116786;1178;23450;-73
2021/10/15 10:50:35;;;;;;;9.00;7.80;;;;;;;18.95;48.00;100259.54;116980;1189;23549;-73
2021/10/15 10:53:08;;;;;;;6.40;5.70;;;;;;;19.22;46.74;100258.58;116769;1191;21931;-75
2021/10/15 10:55:41;;;;;;;6.30;5.50;;;;;;;19.30;45.50;100253.80;116761;1193;21892;-73
2021/10/15 10:58:34;;;;;;;11.30;6.10;;;;;;;19.27;44.98;100248.94;116587;1181;21888;-73
2021/10/15 11:01:26;;;;;;;7.80;5.60;;;;;;;18.99;44.25;100245.15;116554;1193;23604;-73
2021/10/15 11:03:59;;;;;;;6.90;5.60;;;;;;;18.71;44.96;100239.88;116556;1193;22075;-73
2021/10/15 11:07:00;;;;;;;8.40;4.80;;;;;;;18.63;45.77;100235.14;116542;1193;21886;-73
2021/10/15 11:09:40;;;;;;;4.90;4.40;;;;;;;18.53;45.45;100231.14;116452;1193;22231;-73
2021/10/15 11:12:19;;;;;;;6.50;4.80;;;;;;;18.36;45.27;100233.62;116717;1189;21878;-73
2021/10/15 11:15:12;;;;;;;4.90;4.40;;;;;;;18.20;45.36;100228.16;116892;1189;24159;-74
2021/10/15 11:17:47;;;;;;;5.70;3.40;;;;;;;17.96;44.90;100222.77;116766;1191;22926;-74
2021/10/15 11:20:27;;;;;;;3.70;2.80;;;;;;;17.77;45.16;100215.33;116641;1191;21899;-75
2021/10/15 11:23:07;;;;;;;6.20;2.50;;;;;;;17.70;45.32;100217.38;116798;1187;21896;-73
2021/10/15 11:25:52;;;;;;;11.80;3.40;;;;;;;17.58;44.76;100211.52;116454;1194;23496;-73
2021/10/15 11:28:21;;;;;;;3.20;2.10;;;;;;;17.39;44.52;100209.91;116463;1194;21893;-73
2021/10/15 11:30:52;;;;;;;3.50;2.70;;;;;;;17.24;44.53;100204.98;116183;1197;21902;-73
2021/10/15 11:33:25;;;;;;;6.20;3.10;;;;;;;17.15;44.66;100203.90;116037;1196;23556;-74
2021/10/15 11:35:55;;;;;;;9.60;5.20;;;;;;;17.07;44.63;100207.23;115988;1197;21900;-72
2021/10/15 11:38:27;;;;;;;6.60;3.00;;;;;;;16.94;44.54;100203.73;115873;1201;22055;-74